Simi Valley, CA (93062)

10:01 AM PDT on July 30, 2016 (GMT -0700)
Sycamore and Alamo | | Change Station

Elev 1004 ft 34.28 °N, 118.74 °W | Updated 13 minutes ago

Haze
Haze
83.0 °F
Feels Like 84 °F
N
1.0
Wind Variable Wind from East
Gusts 3.0 mph

Today
High -- | Low -- °F
--% Chance of Precip.
Yesterday
High -- | Low -- °F
Precip. -- in
Pressure 29.86 in
Visibility 7.0 miles
Clouds Clear
Heat Index 84 °F
Dew Point 62 °F
Humidity 49%
Rainfall Not available.
Snow Depth Not available.
6:04 AM 7:57 PM
Waning Crescent, 12% visible
METAR KVNY 301651Z COR 03003KT 7SM HZ CLR 27/16 A2989 RMK AO2 SLP110 T02670161
Pressure 29.86 in
Visibility 7.0 miles
Clouds Clear
Heat Index 84 °F
Dew Point 62 °F
Humidity 49%
Rainfall Not available.
Snow Depth Not available.
6:04 AM 7:57 PM
Waning Crescent, 12% visible
METAR KVNY 301651Z COR 03003KT 7SM HZ CLR 27/16 A2989 RMK AO2 SLP110 T02670161

10-Day Weather Forecast

Almanac

Astronomy

Jul. 30, 2016 Rise Set
Actual Time
Civil Twilight
Nautical Twilight
Astronomical Twilight
Moon
Length of Visible Light
Length of Day
Tomorrow will be .
, % of the Moon is Illuminated

Today's Extremes

State Highs State Lows

Community

WunderPhotos

Upload Photos

1,928,598 photos uploaded!

WunderBlog® & News

Nearby

Air Quality

  Air Quality AQ Index Pollutant
Not available.

Snow Depth

Station Depth Elevation

Earthquake Activity

City Distance Mag. Time & Date
Minimum magnitude displayed is 2.5.

Coastal Water Temperatures

Place Temperature

Stations

Nearby Weather Stations

Station Location Temp. Windchill Dew Point Humidity Wind Precip. Elev Updated Type
                   

Watches & Warnings

There are currently no watches in effect.